sensor_id;sensor_type;location;lat;lon;timestamp;pressure;altitude;pressure_sealevel;temperature;humidity
64739;BME280;51175;51.186;0.276;2023-07-24T00:00:27;100003.13;;;22.56;54.28
64739;BME280;51175;51.186;0.276;2023-07-24T00:00:58;100003.88;;;22.56;54.41
64739;BME280;51175;51.186;0.276;2023-07-24T00:01:28;100005.81;;;22.56;54.39
64739;BME280;51175;51.186;0.276;2023-07-24T00:01:58;100000.44;;;22.56;54.25
64739;BME280;51175;51.186;0.276;2023-07-24T00:02:29;100001.97;;;22.57;54.24
64739;BME280;51175;51.186;0.276;2023-07-24T00:02:59;100005.03;;;22.55;54.14
64739;BME280;51175;51.186;0.276;2023-07-24T00:03:29;99998.84;;;22.55;54.25
64739;BME280;51175;51.186;0.276;2023-07-24T00:04:00;100001.53;;;22.55;54.21
64739;BME280;51175;51.186;0.276;2023-07-24T00:04:33;99998.84;;;22.55;54.13
64739;BME280;51175;51.186;0.276;2023-07-24T00:05:04;99996.50;;;22.53;54.29
64739;BME280;51175;51.186;0.276;2023-07-24T00:05:34;99994.63;;;22.54;54.26
64739;BME280;51175;51.186;0.276;2023-07-24T00:06:04;99994.63;;;22.54;54.12
64739;BME280;51175;51.186;0.276;2023-07-24T00:06:35;99989.59;;;22.52;54.31
64739;BME280;51175;51.186;0.276;2023-07-24T00:07:05;99991.94;;;22.54;54.41
64739;BME280;51175;51.186;0.276;2023-07-24T00:07:36;99986.53;;;22.54;54.13
64739;BME280;51175;51.186;0.276;2023-07-24T00:08:06;99997.31;;;22.54;54.24
64739;BME280;51175;51.186;0.276;2023-07-24T00:08:37;99991.13;;;22.53;54.15
64739;BME280;51175;51.186;0.276;2023-07-24T00:09:08;99997.31;;;22.54;54.29
64739;BME280;51175;51.186;0.276;2023-07-24T00:09:38;99998.44;;;22.53;54.11
64739;BME280;51175;51.186;0.276;2023-07-24T00:10:08;100000.00;;;22.54;54.26
64739;BME280;51175;51.186;0.276;2023-07-24T00:10:39;99992.28;;;22.52;54.29
64739;BME280;51175;51.186;0.276;2023-07-24T00:11:09;99993.06;;;22.53;54.18
64739;BME280;51175;51.186;0.276;2023-07-24T00:11:40;99994.97;;;22.52;54.38
64739;BME280;51175;51.186;0.276;2023-07-24T00:12:10;99994.19;;;22.52;54.19
64739;BME280;51175;51.186;0.276;2023-07-24T00:12:40;99992.28;;;22.52;54.29
64739;BME280;51175;51.186;0.276;2023-07-24T00:13:11;99996.13;;;22.51;54.29
64739;BME280;51175;51.186;0.276;2023-07-24T00:13:41;99996.88;;;22.52;54.30
64739;BME280;51175;51.186;0.276;2023-07-24T00:14:11;99991.50;;;22.52;54.45
64739;BME280;51175;51.186;0.276;2023-07-24T00:14:42;99997.22;;;22.50;54.27
64739;BME280;51175;51.186;0.276;2023-07-24T00:15:12;99994.53;;;22.50;54.27
64739;BME280;51175;51.186;0.276;2023-07-24T00:15:43;100007.97;;;22.50;54.46
64739;BME280;51175;51.186;0.276;2023-07-24T00:16:13;99991.09;;;22.50;54.13
64739;BME280;51175;51.186;0.276;2023-07-24T00:16:43;99997.22;;;22.50;54.44
64739;BME280;51175;51.186;0.276;2023-07-24T00:17:14;100000.28;;;22.49;54.23
64739;BME280;51175;51.186;0.276;2023-07-24T00:17:44;100002.97;;;22.49;54.23
64739;BME280;51175;51.186;0.276;2023-07-24T00:18:14;100000.28;;;22.49;54.50
64739;BME280;51175;51.186;0.276;2023-07-24T00:18:45;99994.88;;;22.49;54.29
64739;BME280;51175;51.186;0.276;2023-07-24T00:19:15;99999.50;;;22.48;54.31
64739;BME280;51175;51.186;0.276;2023-07-24T00:19:45;99993.34;;;22.48;54.33
64739;BME280;51175;51.186;0.276;2023-07-24T00:20:16;99994.13;;;22.48;54.15
64739;BME280;51175;51.186;0.276;2023-07-24T00:20:46;100001.41;;;22.48;54.23
64739;BME280;51175;51.186;0.276;2023-07-24T00:21:16;99999.88;;;22.47;54.40
64739;BME280;51175;51.186;0.276;2023-07-24T00:21:47;100002.56;;;22.47;54.38
64739;BME280;51175;51.186;0.276;2023-07-24T00:22:17;100002.56;;;22.47;54.38
64739;BME280;51175;51.186;0.276;2023-07-24T00:22:47;100000.97;;;22.45;54.34
64739;BME280;51175;51.186;0.276;2023-07-24T00:23:18;99991.78;;;22.47;54.44
64739;BME280;51175;51.186;0.276;2023-07-24T00:23:48;99999.06;;;22.46;54.50
64739;BME280;51175;51.186;0.276;2023-07-24T00:24:18;100000.97;;;22.45;54.25
64739;BME280;51175;51.186;0.276;2023-07-24T00:24:49;99992.91;;;22.45;54.28
64739;BME280;51175;51.186;0.276;2023-07-24T00:25:19;99990.22;;;22.45;54.46
64739;BME280;51175;51.186;0.276;2023-07-24T00:25:49;99997.53;;;22.45;54.09
64739;BME280;51175;51.186;0.276;2023-07-24T00:26:20;100002.91;;;22.45;54.43
64739;BME280;51175;51.186;0.276;2023-07-24T00:26:50;99996.75;;;22.44;54.10
64739;BME280;51175;51.186;0.276;2023-07-24T00:27:20;100002.91;;;22.45;54.51
64739;BME280;51175;51.186;0.276;2023-07-24T00:27:51;99991.34;;;22.44;54.38
64739;BME280;51175;51.186;0.276;2023-07-24T00:28:21;99996.75;;;22.44;54.31
64739;BME280;51175;51.186;0.276;2023-07-24T00:28:51;99998.63;;;22.44;54.31
64739;BME280;51175;51.186;0.276;2023-07-24T00:29:22;100000.22;;;22.45;54.42
64739;BME280;51175;51.186;0.276;2023-07-24T00:29:52;99994.84;;;22.45;54.52
64739;BME280;51175;51.186;0.276;2023-07-24T00:30:22;100004.03;;;22.44;54.28
64739;BME280;51175;51.186;0.276;2023-07-24T00:30:53;100003.25;;;22.43;54.25
64739;BME280;51175;51.186;0.276;2023-07-24T00:31:23;99997.88;;;22.43;54.36
64739;BME280;51175;51.186;0.276;2023-07-24T00:31:54;99999.00;;;22.42;54.38
64739;BME280;51175;51.186;0.276;2023-07-24T00:32:24;99994.41;;;22.43;54.48
64739;BME280;51175;51.186;0.276;2023-07-24T00:32:54;99996.31;;;22.42;54.40
64739;BME280;51175;51.186;0.276;2023-07-24T00:33:24;99992.84;;;22.42;54.17
64739;BME280;51175;51.186;0.276;2023-07-24T00:33:55;100000.13;;;22.41;54.38
64739;BME280;51175;51.186;0.276;2023-07-24T00:34:25;99995.53;;;22.42;54.31
64739;BME280;51175;51.186;0.276;2023-07-24T00:34:55;99992.06;;;22.41;54.27
64739;BME280;51175;51.186;0.276;2023-07-24T00:35:26;99993.97;;;22.41;54.34
64739;BME280;51175;51.186;0.276;2023-07-24T00:35:57;99992.84;;;22.42;54.37
64739;BME280;51175;51.186;0.276;2023-07-24T00:36:30;99997.44;;;22.41;54.39
64739;BME280;51175;51.186;0.276;2023-07-24T00:37:00;99991.28;;;22.41;54.25
64739;BME280;51175;51.186;0.276;2023-07-24T00:37:31;99988.59;;;22.41;54.25
64739;BME280;51175;51.186;0.276;2023-07-24T00:38:01;99989.72;;;22.40;54.39
64739;BME280;51175;51.186;0.276;2023-07-24T00:38:31;99987.81;;;22.40;54.22
64739;BME280;51175;51.186;0.276;2023-07-24T00:39:02;99986.25;;;22.39;54.30
64739;BME280;51175;51.186;0.276;2023-07-24T00:39:32;99977.41;;;22.39;54.44
64739;BME280;51175;51.186;0.276;2023-07-24T00:40:02;99990.88;;;22.39;54.52
64739;BME280;51175;51.186;0.276;2023-07-24T00:40:34;99992.41;;;22.40;54.44
64739;BME280;51175;51.186;0.276;2023-07-24T00:41:04;99986.25;;;22.39;54.43
64739;BME280;51175;51.186;0.276;2023-07-24T00:41:34;99980.09;;;22.39;54.15
64739;BME280;51175;51.186;0.276;2023-07-24T00:42:05;99978.19;;;22.39;54.42
64739;BME280;51175;51.186;0.276;2023-07-24T00:42:35;99979.75;;;22.40;54.39
64739;BME280;51175;51.186;0.276;2023-07-24T00:43:06;99984.69;;;22.38;54.33
64739;BME280;51175;51.186;0.276;2023-07-24T00:43:36;99987.03;;;22.40;54.28
64739;BME280;51175;51.186;0.276;2023-07-24T00:44:06;99980.88;;;22.39;54.17
64739;BME280;51175;51.186;0.276;2023-07-24T00:44:37;99977.41;;;22.39;54.13
64739;BME280;51175;51.186;0.276;2023-07-24T00:45:08;99977.41;;;22.39;54.24
64739;BME280;51175;51.186;0.276;2023-07-24T00:45:39;99976.63;;;22.38;54.39
64739;BME280;51175;51.186;0.276;2023-07-24T00:46:10;99978.53;;;22.38;54.32
64739;BME280;51175;51.186;0.276;2023-07-24T00:46:41;99980.09;;;22.39;54.15
64739;BME280;51175;51.186;0.276;2023-07-24T00:47:11;99986.25;;;22.39;54.48
64739;BME280;51175;51.186;0.276;2023-07-24T00:47:45;99983.16;;;22.37;54.22
64739;BME280;51175;51.186;0.276;2023-07-24T00:48:15;99975.84;;;22.38;54.25
64739;BME280;51175;51.186;0.276;2023-07-24T00:48:46;99975.84;;;22.38;54.21
64739;BME280;51175;51.186;0.276;2023-07-24T00:49:17;99983.16;;;22.37;54.14
64739;BME280;51175;51.186;0.276;2023-07-24T00:49:48;99971.59;;;22.37;54.15
64739;BME280;51175;51.186;0.276;2023-07-24T00:50:19;99984.25;;;22.36;54.27
64739;BME280;51175;51.186;0.276;2023-07-24T00:50:50;99976.19;;;22.36;54.25
64739;BME280;51175;51.186;0.276;2023-07-24T00:51:20;99992.34;;;22.36;54.36
64739;BME280;51175;51.186;0.276;2023-07-24T00:51:51;99985.06;;;22.37;54.33
64739;BME280;51175;51.186;0.276;2023-07-24T00:52:22;99984.25;;;22.36;54.26
64739;BME280;51175;51.186;0.276;2023-07-24T00:52:53;99981.56;;;22.36;54.22
64739;BME280;51175;51.186;0.276;2023-07-24T00:53:24;99981.56;;;22.36;54.42
64739;BME280;51175;51.186;0.276;2023-07-24T00:53:56;99983.50;;;22.36;54.25
64739;BME280;51175;51.186;0.276;2023-07-24T00:54:28;99980.03;;;22.35;54.41
64739;BME280;51175;51.186;0.276;2023-07-24T00:55:02;99984.63;;;22.35;54.13
64739;BME280;51175;51.186;0.276;2023-07-24T00:55:32;99973.84;;;22.35;54.19
64739;BME280;51175;51.186;0.276;2023-07-24T00:56:03;99984.19;;;22.32;54.30
64739;BME280;51175;51.186;0.276;2023-07-24T00:56:34;99980.38;;;22.33;54.44
64739;BME280;51175;51.186;0.276;2023-07-24T00:57:05;99967.28;;;22.32;54.32
64739;BME280;51175;51.186;0.276;2023-07-24T00:57:35;99976.09;;;22.32;54.39
64739;BME280;51175;51.186;0.276;2023-07-24T00:58:06;99969.97;;;22.32;54.28
64739;BME280;51175;51.186;0.276;2023-07-24T00:58:37;99970.72;;;22.32;54.39
64739;BME280;51175;51.186;0.276;2023-07-24T00:59:08;99969.97;;;22.32;54.45
64739;BME280;51175;51.186;0.276;2023-07-24T00:59:39;99976.09;;;22.32;54.33
64739;BME280;51175;51.186;0.276;2023-07-24T01:00:10;99969.97;;;22.32;54.40
64739;BME280;51175;51.186;0.276;2023-07-24T01:00:41;99968.03;;;22.32;54.23
64739;BME280;51175;51.186;0.276;2023-07-24T01:01:11;99969.97;;;22.32;54.54
64739;BME280;51175;51.186;0.276;2023-07-24T01:01:42;99970.72;;;22.32;54.30
64739;BME280;51175;51.186;0.276;2023-07-24T01:02:12;99969.97;;;22.32;54.31
64739;BME280;51175;51.186;0.276;2023-07-24T01:02:43;99974.56;;;22.31;54.36
64739;BME280;51175;51.186;0.276;2023-07-24T01:03:14;99973.78;;;22.31;54.37
64739;BME280;51175;51.186;0.276;2023-07-24T01:03:44;99974.91;;;22.30;54.35
64739;BME280;51175;51.186;0.276;2023-07-24T01:04:15;99978.38;;;22.30;54.49
64739;BME280;51175;51.186;0.276;2023-07-24T01:04:46;99971.44;;;22.29;54.23
64739;BME280;51175;51.186;0.276;2023-07-24T01:05:17;99966.06;;;22.29;54.40
64739;BME280;51175;51.186;0.276;2023-07-24T01:05:47;99962.59;;;22.29;54.50
64739;BME280;51175;51.186;0.276;2023-07-24T01:06:18;99971.44;;;22.29;54.57
64739;BME280;51175;51.186;0.276;2023-07-24T01:06:49;99974.47;;;22.28;54.42
64739;BME280;51175;51.186;0.276;2023-07-24T01:07:20;99969.88;;;22.28;54.38
64739;BME280;51175;51.186;0.276;2023-07-24T01:07:51;99975.25;;;22.28;54.57
64739;BME280;51175;51.186;0.276;2023-07-24T01:08:22;99974.47;;;22.28;54.53
64739;BME280;51175;51.186;0.276;2023-07-24T01:08:53;99971.03;;;22.27;54.53
64739;BME280;51175;51.186;0.276;2023-07-24T01:09:23;99968.34;;;22.27;54.47
64739;BME280;51175;51.186;0.276;2023-07-24T01:09:54;99970.25;;;22.27;54.42
64739;BME280;51175;51.186;0.276;2023-07-24T01:10:24;99967.56;;;22.27;54.56
64739;BME280;51175;51.186;0.276;2023-07-24T01:10:57;99969.44;;;22.26;54.38
64739;BME280;51175;51.186;0.276;2023-07-24T01:11:34;99971.03;;;22.27;54.37
64739;BME280;51175;51.186;0.276;2023-07-24T01:12:12;99971.38;;;22.26;54.26
64739;BME280;51175;51.186;0.276;2023-07-24T01:12:53;99964.44;;;22.25;54.50
64739;BME280;51175;51.186;0.276;2023-07-24T01:13:30;99965.56;;;22.24;54.52
64739;BME280;51175;51.186;0.276;2023-07-24T01:14:24;99972.84;;;22.23;54.41
64739;BME280;51175;51.186;0.276;2023-07-24T01:16:04;99967.41;;;22.19;54.43
64739;BME280;51175;51.186;0.276;2023-07-24T01:16:37;99966.63;;;22.19;54.58
64739;BME280;51175;51.186;0.276;2023-07-24T01:17:09;99967.41;;;22.19;54.51
64739;BME280;51175;51.186;0.276;2023-07-24T01:17:48;99970.84;;;22.20;54.59
64739;BME280;51175;51.186;0.276;2023-07-24T01:18:22;99969.31;;;22.19;54.58
64739;BME280;51175;51.186;0.276;2023-07-24T01:18:56;99973.91;;;22.18;54.45
64739;BME280;51175;51.186;0.276;2023-07-24T01:19:37;99969.31;;;22.19;54.61
64739;BME280;51175;51.186;0.276;2023-07-24T01:20:11;99967.75;;;22.18;54.60
64739;BME280;51175;51.186;0.276;2023-07-24T01:20:49;99966.97;;;22.17;54.70
64739;BME280;51175;51.186;0.276;2023-07-24T01:21:29;99966.97;;;22.17;54.60
64739;BME280;51175;51.186;0.276;2023-07-24T01:22:32;99969.66;;;22.17;54.50
64739;BME280;51175;51.186;0.276;2023-07-24T01:24:18;99968.81;;;22.13;54.83
64739;BME280;51175;51.186;0.276;2023-07-24T01:24:57;99972.63;;;22.12;54.74
64739;BME280;51175;51.186;0.276;2023-07-24T01:25:33;99967.25;;;22.12;54.56
64739;BME280;51175;51.186;0.276;2023-07-24T01:26:07;99971.84;;;22.12;54.63
64739;BME280;51175;51.186;0.276;2023-07-24T01:26:38;99971.84;;;22.12;54.48
64739;BME280;51175;51.186;0.276;2023-07-24T01:27:09;99968.38;;;22.11;54.79
64739;BME280;51175;51.186;0.276;2023-07-24T01:27:43;99972.97;;;22.11;54.70
64739;BME280;51175;51.186;0.276;2023-07-24T01:28:14;99966.84;;;22.10;54.58
64739;BME280;51175;51.186;0.276;2023-07-24T01:28:44;99968.38;;;22.11;54.77
64739;BME280;51175;51.186;0.276;2023-07-24T01:29:15;99969.16;;;22.12;54.79
64739;BME280;51175;51.186;0.276;2023-07-24T01:29:46;99972.63;;;22.12;54.61
64739;BME280;51175;51.186;0.276;2023-07-24T01:30:18;99969.16;;;22.12;54.78
64739;BME280;51175;51.186;0.276;2023-07-24T01:30:48;99961.09;;;22.12;54.79
64739;BME280;51175;51.186;0.276;2023-07-24T01:31:19;99961.09;;;22.12;54.49
64739;BME280;51175;51.186;0.276;2023-07-24T01:31:49;99970.72;;;22.13;54.71
64739;BME280;51175;51.186;0.276;2023-07-24T01:32:20;99970.72;;;22.13;54.74
64739;BME280;51175;51.186;0.276;2023-07-24T01:32:50;99966.47;;;22.12;54.65
64739;BME280;51175;51.186;0.276;2023-07-24T01:33:21;99963.78;;;22.12;54.67
64739;BME280;51175;51.186;0.276;2023-07-24T01:33:52;99963.44;;;22.13;54.49
64739;BME280;51175;51.186;0.276;2023-07-24T01:34:22;99970.72;;;22.13;54.43
64739;BME280;51175;51.186;0.276;2023-07-24T01:34:53;99971.84;;;22.12;54.79
64739;BME280;51175;51.186;0.276;2023-07-24T01:35:24;99967.25;;;22.12;54.59
64739;BME280;51175;51.186;0.276;2023-07-24T01:36:01;99961.88;;;22.12;54.67
64739;BME280;51175;51.186;0.276;2023-07-24T01:36:32;99965.34;;;22.13;54.57
64739;BME280;51175;51.186;0.276;2023-07-24T01:37:03;99971.84;;;22.12;54.61
64739;BME280;51175;51.186;0.276;2023-07-24T01:37:34;99960.31;;;22.11;54.48
64739;BME280;51175;51.186;0.276;2023-07-24T01:38:05;99963.78;;;22.12;54.55
64739;BME280;51175;51.186;0.276;2023-07-24T01:38:36;99971.06;;;22.11;54.57
64739;BME280;51175;51.186;0.276;2023-07-24T01:39:09;99963.78;;;22.12;54.74
64739;BME280;51175;51.186;0.276;2023-07-24T01:39:43;99962.22;;;22.11;54.72
64739;BME280;51175;51.186;0.276;2023-07-24T01:40:15;99970.28;;;22.11;54.71
64739;BME280;51175;51.186;0.276;2023-07-24T01:40:45;99963.34;;;22.10;54.69
64739;BME280;51175;51.186;0.276;2023-07-24T01:41:16;99971.41;;;22.10;54.55
64739;BME280;51175;51.186;0.276;2023-07-24T01:41:47;99962.22;;;22.11;54.70
64739;BME280;51175;51.186;0.276;2023-07-24T01:42:18;99964.91;;;22.11;54.81
64739;BME280;51175;51.186;0.276;2023-07-24T01:42:48;99959.13;;;22.08;54.62
64739;BME280;51175;51.186;0.276;2023-07-24T01:43:20;99959.13;;;22.08;54.60
64739;BME280;51175;51.186;0.276;2023-07-24T01:43:50;99955.63;;;22.08;54.79
64739;BME280;51175;51.186;0.276;2023-07-24T01:44:21;99957.19;;;22.09;54.78
64739;BME280;51175;51.186;0.276;2023-07-24T01:44:54;99962.56;;;22.09;54.78
64739;BME280;51175;51.186;0.276;2023-07-24T01:45:25;99960.66;;;22.10;54.67
64739;BME280;51175;51.186;0.276;2023-07-24T01:45:55;99958.31;;;22.08;54.62
64739;BME280;51175;51.186;0.276;2023-07-24T01:46:26;99959.88;;;22.09;54.52
64739;BME280;51175;51.186;0.276;2023-07-24T01:46:56;99952.59;;;22.10;54.61
64739;BME280;51175;51.186;0.276;2023-07-24T01:47:27;99957.19;;;22.09;54.49
64739;BME280;51175;51.186;0.276;2023-07-24T01:47:58;99951.06;;;22.08;54.44
64739;BME280;51175;51.186;0.276;2023-07-24T01:48:28;99951.81;;;22.09;54.75
64739;BME280;51175;51.186;0.276;2023-07-24T01:48:58;99959.13;;;22.08;54.60
64739;BME280;51175;51.186;0.276;2023-07-24T01:49:28;99956.44;;;22.08;54.56
64739;BME280;51175;51.186;0.276;2023-07-24T01:49:59;99950.25;;;22.08;54.61
64739;BME280;51175;51.186;0.276;2023-07-24T01:50:29;99956.44;;;22.08;54.49
64739;BME280;51175;51.186;0.276;2023-07-24T01:51:00;99954.84;;;22.07;54.73
64739;BME280;51175;51.186;0.276;2023-07-24T01:51:30;99944.09;;;22.07;54.70
64739;BME280;51175;51.186;0.276;2023-07-24T01:52:01;99943.34;;;22.07;54.65
64739;BME280;51175;51.186;0.276;2023-07-24T01:52:32;99949.47;;;22.07;54.54
64739;BME280;51175;51.186;0.276;2023-07-24T01:53:02;99949.47;;;22.07;54.60
64739;BME280;51175;51.186;0.276;2023-07-24T01:53:32;99944.88;;;22.08;54.56
64739;BME280;51175;51.186;0.276;2023-07-24T01:54:03;99953.75;;;22.08;54.52
64739;BME280;51175;51.186;0.276;2023-07-24T01:54:33;99949.47;;;22.07;54.59
64739;BME280;51175;51.186;0.276;2023-07-24T01:55:04;99949.47;;;22.07;54.42
64739;BME280;51175;51.186;0.276;2023-07-24T01:55:35;99948.38;;;22.08;54.64
64739;BME280;51175;51.186;0.276;2023-07-24T01:56:05;99955.63;;;22.08;54.79
64739;BME280;51175;51.186;0.276;2023-07-24T01:56:36;99952.16;;;22.07;54.61
64739;BME280;51175;51.186;0.276;2023-07-24T01:57:07;99954.84;;;22.07;54.46
64739;BME280;51175;51.186;0.276;2023-07-24T01:57:37;99954.09;;;22.07;54.53
64739;BME280;51175;51.186;0.276;2023-07-24T01:58:08;99952.94;;;22.08;54.47
64739;BME280;51175;51.186;0.276;2023-07-24T01:58:38;99954.09;;;22.07;54.55
64739;BME280;51175;51.186;0.276;2023-07-24T01:59:09;99946.03;;;22.07;54.73
64739;BME280;51175;51.186;0.276;2023-07-24T01:59:39;99954.09;;;22.07;54.63
64739;BME280;51175;51.186;0.276;2023-07-24T02:00:10;99947.94;;;22.06;54.71
64739;BME280;51175;51.186;0.276;2023-07-24T02:00:42;99950.63;;;22.06;54.53
64739;BME280;51175;51.186;0.276;2023-07-24T02:01:12;99964.84;;;22.07;54.41
64739;BME280;51175;51.186;0.276;2023-07-24T02:01:44;99960.56;;;22.06;54.53
64739;BME280;51175;51.186;0.276;2023-07-24T02:02:14;99953.31;;;22.06;54.57
64739;BME280;51175;51.186;0.276;2023-07-24T02:02:45;99957.88;;;22.06;54.54
64739;BME280;51175;51.186;0.276;2023-07-24T02:03:15;99961.38;;;22.06;54.71
64739;BME280;51175;51.186;0.276;2023-07-24T02:03:45;99959.81;;;22.05;54.57
64739;BME280;51175;51.186;0.276;2023-07-24T02:04:16;99957.13;;;22.05;54.57
64739;BME280;51175;51.186;0.276;2023-07-24T02:04:46;99960.56;;;22.06;54.54
64739;BME280;51175;51.186;0.276;2023-07-24T02:05:17;99957.13;;;22.05;54.63
64739;BME280;51175;51.186;0.276;2023-07-24T02:05:50;99957.13;;;22.05;54.76
64739;BME280;51175;51.186;0.276;2023-07-24T02:06:21;99957.13;;;22.05;54.53
64739;BME280;51175;51.186;0.276;2023-07-24T02:06:51;99958.25;;;22.04;54.62
64739;BME280;51175;51.186;0.276;2023-07-24T02:07:22;99956.34;;;22.05;54.63
64739;BME280;51175;51.186;0.276;2023-07-24T02:07:52;99954.00;;;22.03;54.69
64739;BME280;51175;51.186;0.276;2023-07-24T02:08:23;99952.88;;;22.04;54.81
64739;BME280;51175;51.186;0.276;2023-07-24T02:08:53;99958.59;;;22.03;54.65
64739;BME280;51175;51.186;0.276;2023-07-24T02:09:23;99957.47;;;22.04;54.70
64739;BME280;51175;51.186;0.276;2023-07-24T02:09:54;99951.31;;;22.03;54.82
64739;BME280;51175;51.186;0.276;2023-07-24T02:10:24;99956.69;;;22.03;54.78
64739;BME280;51175;51.186;0.276;2023-07-24T02:10:55;99954.00;;;22.03;54.59
64739;BME280;51175;51.186;0.276;2023-07-24T02:11:25;99949.78;;;22.02;54.82
64739;BME280;51175;51.186;0.276;2023-07-24T02:11:55;99954.00;;;22.03;54.70
64739;BME280;51175;51.186;0.276;2023-07-24T02:12:26;99954.00;;;22.03;54.83
64739;BME280;51175;51.186;0.276;2023-07-24T02:12:56;99944.38;;;22.02;54.84
64739;BME280;51175;51.186;0.276;2023-07-24T02:13:26;99948.19;;;22.01;54.87
64739;BME280;51175;51.186;0.276;2023-07-24T02:13:57;99948.19;;;22.01;54.58
64739;BME280;51175;51.186;0.276;2023-07-24T02:14:27;99951.66;;;22.02;54.71
64739;BME280;51175;51.186;0.276;2023-07-24T02:14:58;99943.16;;;22.00;54.75
64739;BME280;51175;51.186;0.276;2023-07-24T02:15:29;99947.44;;;22.01;54.66
64739;BME280;51175;51.186;0.276;2023-07-24T02:16:00;99947.44;;;22.01;54.72
64739;BME280;51175;51.186;0.276;2023-07-24T02:16:30;99949.34;;;22.00;54.89
64739;BME280;51175;51.186;0.276;2023-07-24T02:17:00;99949.34;;;22.00;54.75
64739;BME280;51175;51.186;0.276;2023-07-24T02:17:31;99943.16;;;22.00;54.70
64739;BME280;51175;51.186;0.276;2023-07-24T02:18:01;99941.28;;;22.00;54.63
64739;BME280;51175;51.186;0.276;2023-07-24T02:18:31;99942.06;;;22.01;54.63
64739;BME280;51175;51.186;0.276;2023-07-24T02:19:02;99943.16;;;22.00;54.69
64739;BME280;51175;51.186;0.276;2023-07-24T02:19:32;99945.84;;;22.00;54.86
64739;BME280;51175;51.186;0.276;2023-07-24T02:20:03;99941.28;;;22.00;54.57
64739;BME280;51175;51.186;0.276;2023-07-24T02:20:33;99945.84;;;22.00;54.64
64739;BME280;51175;51.186;0.276;2023-07-24T02:21:04;99943.97;;;22.00;54.61
64739;BME280;51175;51.186;0.276;2023-07-24T02:21:34;99941.28;;;22.00;54.75
64739;BME280;51175;51.186;0.276;2023-07-24T02:22:05;99937.78;;;22.00;54.77
64739;BME280;51175;51.186;0.276;2023-07-24T02:22:35;99942.38;;;21.99;54.65
64739;BME280;51175;51.186;0.276;2023-07-24T02:23:07;99945.06;;;21.99;54.75
64739;BME280;51175;51.186;0.276;2023-07-24T02:23:37;99941.63;;;21.99;54.60
64739;BME280;51175;51.186;0.276;2023-07-24T02:24:08;99939.69;;;21.99;54.81
64739;BME280;51175;51.186;0.276;2023-07-24T02:24:38;99945.84;;;22.00;54.72
64739;BME280;51175;51.186;0.276;2023-07-24T02:25:09;99949.69;;;21.99;54.85
64739;BME280;51175;51.186;0.276;2023-07-24T02:25:39;99939.69;;;21.99;54.85
64739;BME280;51175;51.186;0.276;2023-07-24T02:26:09;99947.00;;;21.99;54.67
64739;BME280;51175;51.186;0.276;2023-07-24T02:26:40;99938.13;;;21.98;54.88
64739;BME280;51175;51.186;0.276;2023-07-24T02:27:25;99938.13;;;21.98;54.81
64739;BME280;51175;51.186;0.276;2023-07-24T02:27:55;99938.13;;;21.98;54.75
64739;BME280;51175;51.186;0.276;2023-07-24T02:28:26;99944.66;;;21.97;54.67
64739;BME280;51175;51.186;0.276;2023-07-24T02:28:56;99936.59;;;21.97;54.70
64739;BME280;51175;51.186;0.276;2023-07-24T02:29:27;99938.50;;;21.97;54.80
64739;BME280;51175;51.186;0.276;2023-07-24T02:29:57;99941.19;;;21.97;54.94
64739;BME280;51175;51.186;0.276;2023-07-24T02:30:28;99943.88;;;21.97;54.71
64739;BME280;51175;51.186;0.276;2023-07-24T02:30:58;99938.50;;;21.97;54.79
64739;BME280;51175;51.186;0.276;2023-07-24T02:31:30;99939.63;;;21.95;54.88
64739;BME280;51175;51.186;0.276;2023-07-24T02:32:00;99941.19;;;21.97;55.01
64739;BME280;51175;51.186;0.276;2023-07-24T02:32:31;99940.41;;;21.96;54.80
64739;BME280;51175;51.186;0.276;2023-07-24T02:33:02;99941.19;;;21.97;54.68
64739;BME280;51175;51.186;0.276;2023-07-24T02:33:32;99940.41;;;21.96;54.88
64739;BME280;51175;51.186;0.276;2023-07-24T02:34:03;99940.41;;;21.96;54.59
64739;BME280;51175;51.186;0.276;2023-07-24T02:34:33;99939.63;;;21.95;54.63
64739;BME280;51175;51.186;0.276;2023-07-24T02:35:04;99943.06;;;21.96;54.92
64739;BME280;51175;51.186;0.276;2023-07-24T02:35:41;99941.53;;;21.95;54.80
64739;BME280;51175;51.186;0.276;2023-07-24T02:36:11;99936.16;;;21.95;54.71
64739;BME280;51175;51.186;0.276;2023-07-24T02:36:42;99935.38;;;21.94;54.65
64739;BME280;51175;51.186;0.276;2023-07-24T02:37:42;99936.16;;;21.95;54.90
64739;BME280;51175;51.186;0.276;2023-07-24T02:38:43;99935.38;;;21.94;54.85
64739;BME280;51175;51.186;0.276;2023-07-24T02:39:13;99938.06;;;21.94;54.84
64739;BME280;51175;51.186;0.276;2023-07-24T02:39:44;99936.16;;;21.95;54.77
64739;BME280;51175;51.186;0.276;2023-07-24T02:40:14;99941.53;;;21.95;54.83
64739;BME280;51175;51.186;0.276;2023-07-24T02:40:45;99932.69;;;21.94;54.67
64739;BME280;51175;51.186;0.276;2023-07-24T02:41:47;99932.28;;;21.92;54.80
64739;BME280;51175;51.186;0.276;2023-07-24T02:42:17;99929.59;;;21.92;54.77
64739;BME280;51175;51.186;0.276;2023-07-24T02:42:48;99926.91;;;21.92;54.86
64739;BME280;51175;51.186;0.276;2023-07-24T02:43:48;99926.91;;;21.92;54.86
64739;BME280;51175;51.186;0.276;2023-07-24T02:44:18;99930.34;;;21.93;54.85
64739;BME280;51175;51.186;0.276;2023-07-24T02:44:49;99926.91;;;21.92;54.76
64739;BME280;51175;51.186;0.276;2023-07-24T02:45:19;99932.63;;;21.91;54.87
64739;BME280;51175;51.186;0.276;2023-07-24T02:45:49;99931.13;;;21.93;54.75
64739;BME280;51175;51.186;0.276;2023-07-24T02:46:20;99931.47;;;21.92;54.76
64739;BME280;51175;51.186;0.276;2023-07-24T02:46:50;99936.06;;;21.91;54.85
64739;BME280;51175;51.186;0.276;2023-07-24T02:47:21;99934.16;;;21.92;54.88
64739;BME280;51175;51.186;0.276;2023-07-24T02:47:51;99934.16;;;21.92;54.64
64739;BME280;51175;51.186;0.276;2023-07-24T02:48:21;99933.38;;;21.91;54.74
64739;BME280;51175;51.186;0.276;2023-07-24T02:48:52;99936.84;;;21.92;54.74
64739;BME280;51175;51.186;0.276;2023-07-24T02:49:22;99937.22;;;21.90;54.81
64739;BME280;51175;51.186;0.276;2023-07-24T02:49:53;99938.00;;;21.91;54.98